createdAt,value
2018-03-17T00:02:48.032Z,71.40
2018-03-17T00:08:16.205Z,71.30
2018-03-17T00:13:44.341Z,71.40
2018-03-17T00:19:15.171Z,71.40
2018-03-17T00:24:43.310Z,71.40
2018-03-17T00:30:11.442Z,71.50
2018-03-17T00:35:40.592Z,71.60
2018-03-17T00:41:09.495Z,71.60
2018-03-17T00:46:37.644Z,71.60
2018-03-17T00:52:07.536Z,72.10
2018-03-17T00:57:35.686Z,71.70
2018-03-17T01:03:03.823Z,71.90
2018-03-17T01:08:31.971Z,71.90
2018-03-17T01:14:00.129Z,72.10
2018-03-17T01:19:28.558Z,72.20
2018-03-17T01:24:56.690Z,72.20
2018-03-17T01:30:25.900Z,72.20
2018-03-17T01:35:54.068Z,72.20
2018-03-17T01:41:22.272Z,72.30
2018-03-17T01:46:50.398Z,72.30
2018-03-17T01:52:31.990Z,72.40
2018-03-17T01:58:01.110Z,72.40
2018-03-17T02:03:30.031Z,72.70
2018-03-17T02:08:58.318Z,72.60
2018-03-17T02:14:26.515Z,72.60
2018-03-17T02:19:54.688Z,72.60
2018-03-17T02:25:22.881Z,73.30
2018-03-17T02:30:51.018Z,72.70
2018-03-17T02:36:19.170Z,72.80
2018-03-17T02:41:47.296Z,72.80
2018-03-17T02:47:15.420Z,72.80
2018-03-17T02:52:44.330Z,73.00
2018-03-17T02:58:12.504Z,73.00
2018-03-17T03:03:40.662Z,73.00
2018-03-17T03:09:12.818Z,73.00
2018-03-17T03:14:41.705Z,73.10
2018-03-17T03:20:10.781Z,73.00
2018-03-17T03:25:38.987Z,73.10
2018-03-17T03:31:07.120Z,73.20
2018-03-17T03:36:36.010Z,73.30
2018-03-17T03:42:06.142Z,73.20
2018-03-17T03:47:35.059Z,73.20
2018-03-17T03:53:03.208Z,73.20
2018-03-17T03:58:31.348Z,73.20
2018-03-17T04:03:59.498Z,73.30
2018-03-17T04:09:31.833Z,73.30
2018-03-17T04:14:59.988Z,73.40
2018-03-17T04:20:29.143Z,74.10
2018-03-17T04:25:57.359Z,73.60
2018-03-17T04:31:25.572Z,73.50
2018-03-17T04:36:54.500Z,73.70
2018-03-17T04:42:22.686Z,73.70
2018-03-17T04:47:51.534Z,73.70
2018-03-17T04:53:31.502Z,73.70
2018-03-17T04:58:59.639Z,73.80
2018-03-17T05:04:27.794Z,73.70
2018-03-17T05:09:55.957Z,73.90
2018-03-17T05:15:24.083Z,73.80
2018-03-17T05:20:52.218Z,73.90
2018-03-17T05:26:20.351Z,73.90
2018-03-17T05:31:49.254Z,73.50
2018-03-17T05:37:18.399Z,74.00
2018-03-17T05:42:47.352Z,73.90
2018-03-17T05:48:15.486Z,74.00
2018-03-17T05:53:45.547Z,74.00
2018-03-17T05:59:13.678Z,74.00
2018-03-17T06:04:41.835Z,74.40
2018-03-17T06:10:11.040Z,74.00
2018-03-17T06:15:40.665Z,74.10
2018-03-17T06:21:08.827Z,74.10
2018-03-17T06:26:38.861Z,74.30
2018-03-17T06:32:08.958Z,74.30
2018-03-17T06:37:37.115Z,74.30
2018-03-17T06:43:11.908Z,74.40
2018-03-17T06:48:40.081Z,74.40
2018-03-17T06:54:08.325Z,74.40
2018-03-17T06:59:36.473Z,74.30
2018-03-17T07:05:04.617Z,74.50
2018-03-17T07:10:33.552Z,74.40
2018-03-17T07:16:01.707Z,74.30
2018-03-17T07:21:29.864Z,74.60
2018-03-17T07:26:58.036Z,74.60
2018-03-17T07:32:26.991Z,74.40
2018-03-17T07:37:56.291Z,74.40
2018-03-17T07:43:24.471Z,74.50
2018-03-17T07:48:52.696Z,74.60
2018-03-17T07:54:22.169Z,74.20
2018-03-17T07:59:50.334Z,74.70
2018-03-17T08:05:18.478Z,74.80
2018-03-17T08:10:47.575Z,74.90
2018-03-17T08:16:16.522Z,75.90
2018-03-17T08:21:45.439Z,76.30
2018-03-17T08:27:13.592Z,76.40
2018-03-17T08:32:43.756Z,76.50
2018-03-17T08:38:11.910Z,76.50
2018-03-17T08:43:40.436Z,76.80
2018-03-17T08:49:08.600Z,77.10
2018-03-17T08:54:37.536Z,77.60
2018-03-17T09:00:06.691Z,77.60
2018-03-17T09:05:35.608Z,78.10
2018-03-17T09:11:04.045Z,78.00
2018-03-17T09:16:32.187Z,78.10
2018-03-17T09:22:02.035Z,78.60
2018-03-17T09:27:32.899Z,79.10
2018-03-17T09:33:01.090Z,79.10
2018-03-17T09:38:29.262Z,78.90
2018-03-17T09:43:57.453Z,78.90
2018-03-17T09:49:25.727Z,78.70
2018-03-17T09:54:53.952Z,78.90
2018-03-17T10:00:22.914Z,78.80
2018-03-17T10:05:52.115Z,78.80
2018-03-17T10:11:20.313Z,78.60
2018-03-17T10:16:50.209Z,78.40
2018-03-17T10:22:18.482Z,78.40
2018-03-17T10:27:47.420Z,78.10
2018-03-17T10:33:16.720Z,78.10
2018-03-17T10:38:44.862Z,78.00
2018-03-17T10:44:13.218Z,78.10
2018-03-17T10:49:42.301Z,78.40
2018-03-17T10:55:10.517Z,78.40
2018-03-17T11:00:44.277Z,78.80
2018-03-17T11:06:12.644Z,78.80
2018-03-17T11:11:41.610Z,79.60
2018-03-17T11:17:12.015Z,78.80
2018-03-17T11:22:40.404Z,78.80
2018-03-17T11:28:09.370Z,79.60
2018-03-17T11:33:38.308Z,79.60
2018-03-17T11:39:06.514Z,79.60
2018-03-17T11:44:35.421Z,79.80
2018-03-17T11:50:03.577Z,79.70
2018-03-17T11:55:32.556Z,79.50
2018-03-17T12:01:00.734Z,79.50
2018-03-17T12:06:29.732Z,79.30
2018-03-17T12:11:57.920Z,79.30
2018-03-17T12:17:26.373Z,79.10
2018-03-17T12:22:54.641Z,79.10
2018-03-17T12:28:23.825Z,79.10
2018-03-17T12:33:53.178Z,79.10
2018-03-17T12:39:21.368Z,79.00
2018-03-17T12:44:50.315Z,79.20
2018-03-17T12:50:18.491Z,79.20
2018-03-17T12:55:46.708Z,79.10
2018-03-17T13:01:15.804Z,80.00
2018-03-17T13:06:43.942Z,79.50
2018-03-17T13:12:13.051Z,79.60
2018-03-17T13:17:41.983Z,80.10
2018-03-17T13:23:16.256Z,80.20
2018-03-17T13:28:45.396Z,80.20
2018-03-17T13:34:13.538Z,80.00
2018-03-17T13:39:42.451Z,80.30
2018-03-17T13:45:11.370Z,80.10
2018-03-17T13:50:40.374Z,80.00
2018-03-17T13:56:08.757Z,80.00
2018-03-17T14:01:37.081Z,80.00
2018-03-17T14:07:05.257Z,79.80
2018-03-17T14:12:34.333Z,79.80
2018-03-17T14:18:03.234Z,79.60
2018-03-17T14:23:32.182Z,79.50
2018-03-17T14:29:00.381Z,79.40
2018-03-17T14:34:28.591Z,79.50
2018-03-17T14:39:58.346Z,78.90
2018-03-17T14:45:26.563Z,78.90
2018-03-17T14:50:55.888Z,78.80
2018-03-17T14:56:24.161Z,78.60
2018-03-17T15:01:53.366Z,78.50
2018-03-17T15:07:21.626Z,78.40
2018-03-17T15:12:50.793Z,78.30
2018-03-17T15:18:19.793Z,77.80
2018-03-17T15:23:48.030Z,77.80
2018-03-17T15:29:17.230Z,77.60
2018-03-17T15:34:46.110Z,77.30
2018-03-17T15:40:16.369Z,77.30
2018-03-17T15:45:44.489Z,77.20
2018-03-17T15:51:12.695Z,77.50
2018-03-17T15:56:40.925Z,76.80
2018-03-17T16:02:09.107Z,76.80
2018-03-17T16:07:37.277Z,76.60
2018-03-17T16:13:05.500Z,76.50
2018-03-17T16:18:33.601Z,76.50
2018-03-17T16:24:01.792Z,76.50
2018-03-17T16:29:30.049Z,76.40
2018-03-17T16:35:00.365Z,76.30
2018-03-17T16:40:32.316Z,76.30
2018-03-17T16:46:00.719Z,76.40
2018-03-17T16:51:29.056Z,76.20
2018-03-17T16:56:57.970Z,76.10
2018-03-17T17:02:28.345Z,76.00
2018-03-17T17:07:56.564Z,75.90
2018-03-17T17:13:25.528Z,75.90
2018-03-17T17:18:53.769Z,75.90
2018-03-17T17:24:22.935Z,76.00
2018-03-17T17:29:55.027Z,75.90
2018-03-17T17:35:23.245Z,75.60
2018-03-17T17:40:51.975Z,75.60
2018-03-17T17:46:24.814Z,75.50
2018-03-17T17:51:53.149Z,75.20
2018-03-17T17:57:23.306Z,75.40
2018-03-17T18:02:54.785Z,76.10
2018-03-17T18:08:23.042Z,75.50
2018-03-17T18:13:52.527Z,75.30
2018-03-17T18:19:25.912Z,75.30
2018-03-17T18:24:56.054Z,75.40
2018-03-17T18:30:27.194Z,75.50
2018-03-17T18:36:03.175Z,75.20
2018-03-17T18:41:31.757Z,75.20
2018-03-17T18:47:00.709Z,75.00
2018-03-17T18:52:29.884Z,75.00
2018-03-17T18:58:03.422Z,75.00
2018-03-17T19:03:31.952Z,75.00
2018-03-17T19:09:01.090Z,75.10
2018-03-17T19:14:29.368Z,75.00
2018-03-17T19:19:58.308Z,74.90
2018-03-17T19:25:27.329Z,74.80
2018-03-17T19:30:55.508Z,74.80
2018-03-17T19:36:24.892Z,74.80
2018-03-17T19:41:54.990Z,74.70
2018-03-17T19:47:23.158Z,74.60
2018-03-17T19:52:51.337Z,75.10
2018-03-17T19:58:21.795Z,74.60
2018-03-17T20:03:50.120Z,74.90
2018-03-17T20:09:19.134Z,75.10
2018-03-17T20:15:07.157Z,75.00
2018-03-17T20:20:39.443Z,75.30
2018-03-17T20:26:07.736Z,75.40
2018-03-17T20:31:36.187Z,75.50
2018-03-17T20:37:04.327Z,75.70
2018-03-17T20:42:34.556Z,75.70
2018-03-17T20:48:02.737Z,75.70
2018-03-17T20:53:31.814Z,75.90
2018-03-17T20:59:01.180Z,75.90
2018-03-17T21:04:30.998Z,76.00
2018-03-17T21:09:59.296Z,76.10
2018-03-17T21:15:29.181Z,76.10
2018-03-17T21:20:57.368Z,76.10
2018-03-17T21:26:27.557Z,76.90
2018-03-17T21:31:55.825Z,76.20
2018-03-17T21:37:24.950Z,76.10
2018-03-17T21:42:55.096Z,76.20
2018-03-17T21:48:24.605Z,76.10
2018-03-17T21:53:52.878Z,76.40
2018-03-17T21:59:21.270Z,76.10
2018-03-17T22:04:50.179Z,77.30
2018-03-17T22:10:18.349Z,76.50
2018-03-17T22:15:46.511Z,76.80
2018-03-17T22:21:15.644Z,76.80
2018-03-17T22:26:44.752Z,76.80
2018-03-17T22:32:13.156Z,76.80
2018-03-17T22:37:41.537Z,76.60
2018-03-17T22:43:09.960Z,76.40
2018-03-17T22:48:40.162Z,76.30
2018-03-17T22:54:09.177Z,75.90
2018-03-17T22:59:38.325Z,75.90
2018-03-17T23:05:06.482Z,75.60
2018-03-17T23:10:35.522Z,75.30
2018-03-17T23:16:09.986Z,75.20
2018-03-17T23:21:43.154Z,75.10
2018-03-17T23:27:11.368Z,75.10
2018-03-17T23:32:39.520Z,75.00
2018-03-17T23:38:07.696Z,74.80
2018-03-17T23:43:38.111Z,74.90
2018-03-17T23:49:06.439Z,74.80
2018-03-17T23:54:34.733Z,74.40
